createdAt,value
2023-10-07T00:01:46.680Z,6.85
2023-10-07T00:04:10.643Z,6.63
2023-10-07T00:06:31.370Z,6.80
2023-10-07T00:08:52.321Z,5.22
2023-10-07T00:11:13.456Z,6.05
2023-10-07T00:13:34.509Z,6.63
2023-10-07T00:15:55.033Z,6.20
2023-10-07T00:18:19.965Z,7.07
2023-10-07T00:20:57.521Z,6.25
2023-10-07T00:23:23.160Z,6.50
2023-10-07T00:25:49.866Z,6.68
2023-10-07T00:28:19.663Z,5.10
2023-10-07T00:30:40.526Z,7.88
2023-10-07T00:33:03.734Z,6.53
2023-10-07T00:35:25.329Z,7.38
2023-10-07T00:37:46.209Z,7.28
2023-10-07T00:40:31.882Z,5.53
2023-10-07T00:42:53.664Z,7.10
2023-10-07T00:45:17.809Z,5.25
2023-10-07T00:47:41.701Z,4.75
2023-10-07T00:50:02.612Z,7.00
2023-10-07T00:52:34.516Z,6.22
2023-10-07T00:57:48.809Z,7.35
2023-10-07T01:00:28.400Z,7.55
2023-10-07T01:02:53.293Z,8.68
2023-10-07T01:05:15.089Z,6.25
2023-10-07T01:07:36.323Z,7.70
2023-10-07T01:10:13.133Z,6.60
2023-10-07T01:12:37.962Z,7.00
2023-10-07T01:14:59.056Z,6.65
2023-10-07T01:17:31.968Z,6.85
2023-10-07T01:19:56.088Z,6.60
2023-10-07T01:22:20.402Z,7.00
2023-10-07T01:24:40.863Z,7.18
2023-10-07T01:27:19.773Z,7.13
2023-10-07T01:29:43.262Z,8.20
2023-10-07T01:32:16.964Z,6.75
2023-10-07T01:34:37.571Z,6.50
2023-10-07T01:37:02.118Z,6.43
2023-10-07T01:39:23.874Z,6.93
2023-10-07T01:41:46.903Z,5.90
2023-10-07T01:44:07.671Z,6.30
2023-10-07T01:46:32.297Z,6.68
2023-10-07T01:48:56.833Z,5.50
2023-10-07T01:51:18.992Z,7.20
2023-10-07T01:53:39.796Z,7.82
2023-10-07T01:56:05.967Z,6.70
2023-10-07T01:58:27.056Z,8.07
2023-10-07T02:00:53.020Z,5.47
2023-10-07T02:03:18.159Z,7.25
2023-10-07T02:05:42.273Z,4.85
2023-10-07T02:08:04.079Z,6.60
2023-10-07T02:10:27.324Z,6.13
2023-10-07T02:12:48.170Z,7.97
2023-10-07T02:15:20.428Z,6.53
2023-10-07T02:17:41.358Z,6.53
2023-10-07T02:20:22.333Z,6.80
2023-10-07T02:22:45.910Z,7.00
2023-10-07T02:25:08.594Z,7.38
2023-10-07T02:27:30.204Z,7.75
2023-10-07T02:29:57.693Z,7.63
2023-10-07T02:32:18.924Z,5.55
2023-10-07T02:34:52.342Z,6.57
2023-10-07T02:37:13.189Z,6.88
2023-10-07T02:39:49.115Z,6.95
2023-10-07T02:42:11.358Z,7.53
2023-10-07T02:44:32.491Z,7.20
2023-10-07T02:46:57.400Z,7.03
2023-10-07T02:49:21.958Z,7.47
2023-10-07T02:51:50.519Z,8.60
2023-10-07T02:54:21.723Z,7.45
2023-10-07T02:56:45.865Z,8.52
2023-10-07T02:59:23.435Z,7.03
2023-10-07T03:01:59.459Z,5.43
2023-10-07T03:04:23.779Z,4.97
2023-10-07T03:06:47.616Z,7.10
2023-10-07T03:09:19.649Z,4.78
2023-10-07T03:14:14.933Z,6.50
2023-10-07T03:16:44.508Z,4.75
2023-10-07T03:19:05.084Z,6.78
2023-10-07T03:21:45.936Z,5.80
2023-10-07T03:24:14.775Z,7.75
2023-10-07T03:26:35.811Z,7.30
2023-10-07T03:28:56.851Z,6.85
2023-10-07T03:31:21.075Z,6.38
2023-10-07T03:33:53.290Z,7.45
2023-10-07T03:36:24.271Z,6.65
2023-10-07T03:38:44.937Z,6.95
2023-10-07T03:41:10.789Z,5.18
2023-10-07T03:45:58.130Z,6.85
2023-10-07T03:48:25.397Z,7.20
2023-10-07T03:50:46.070Z,6.68
2023-10-07T03:53:06.730Z,6.55
2023-10-07T03:55:29.918Z,7.22
2023-10-07T03:57:50.679Z,7.55
2023-10-07T04:00:12.625Z,7.47
2023-10-07T04:02:36.685Z,7.07
2023-10-07T04:05:02.013Z,7.82
2023-10-07T04:07:23.003Z,7.32
2023-10-07T04:09:44.272Z,7.88
2023-10-07T04:12:07.248Z,8.05
2023-10-07T04:14:32.082Z,7.93
2023-10-07T04:16:53.662Z,7.63
2023-10-07T04:19:17.267Z,8.05
2023-10-07T04:21:40.896Z,7.03
2023-10-07T04:24:02.296Z,4.57
2023-10-07T04:26:23.575Z,8.95
2023-10-07T04:28:44.077Z,7.68
2023-10-07T04:31:10.902Z,7.28
2023-10-07T04:33:40.680Z,8.00
2023-10-07T04:36:05.642Z,6.18
2023-10-07T04:38:26.328Z,5.78
2023-10-07T04:41:15.565Z,7.72
2023-10-07T04:43:49.828Z,7.07
2023-10-07T04:46:23.459Z,7.18
2023-10-07T04:48:55.521Z,7.43
2023-10-07T04:53:58.644Z,7.25
2023-10-07T04:56:22.568Z,6.18
2023-10-07T04:58:45.405Z,7.93
2023-10-07T05:01:32.141Z,7.55
2023-10-07T05:03:56.710Z,8.10
2023-10-07T05:06:17.484Z,7.00
2023-10-07T05:08:39.097Z,7.82
2023-10-07T05:11:06.957Z,7.97
2023-10-07T05:13:27.861Z,7.25
2023-10-07T05:15:48.775Z,7.57
2023-10-07T05:18:14.058Z,7.25
2023-10-07T05:20:38.476Z,10.60
2023-10-07T05:23:01.827Z,7.47
2023-10-07T05:25:23.253Z,8.68
2023-10-07T05:27:45.420Z,8.48
2023-10-07T05:30:08.844Z,9.13
2023-10-07T05:32:29.698Z,6.32
2023-10-07T05:34:50.825Z,8.05
2023-10-07T05:37:15.207Z,7.93
2023-10-07T05:39:35.867Z,7.57
2023-10-07T05:41:57.525Z,6.68
2023-10-07T05:44:18.418Z,5.88
2023-10-07T05:46:39.172Z,7.43
2023-10-07T05:49:00.257Z,7.32
2023-10-07T05:51:21.334Z,8.93
2023-10-07T05:53:52.847Z,10.10
2023-10-07T05:56:13.612Z,8.88
2023-10-07T05:58:38.227Z,7.97
2023-10-07T06:00:59.572Z,9.05
2023-10-07T06:03:20.632Z,7.47
2023-10-07T06:05:41.627Z,9.15
2023-10-07T06:08:02.546Z,9.15
2023-10-07T06:10:25.210Z,8.38
2023-10-07T06:12:46.092Z,9.52
2023-10-07T06:15:09.715Z,8.73
2023-10-07T06:17:30.547Z,10.30
2023-10-07T06:19:52.727Z,9.57
2023-10-07T06:22:13.668Z,8.70
2023-10-07T06:24:34.542Z,9.52
2023-10-07T06:26:55.330Z,9.85
2023-10-07T06:29:20.208Z,10.80
2023-10-07T06:31:42.383Z,6.72
2023-10-07T06:34:13.472Z,10.27
2023-10-07T06:36:34.246Z,9.68
2023-10-07T06:38:59.670Z,7.78
2023-10-07T06:41:21.178Z,7.50
2023-10-07T06:43:43.989Z,9.90
2023-10-07T06:46:12.183Z,9.40
2023-10-07T06:48:33.312Z,9.00
2023-10-07T06:50:54.273Z,10.55
2023-10-07T06:53:22.305Z,8.90
2023-10-07T06:55:44.665Z,9.63
2023-10-07T06:58:07.885Z,8.10
2023-10-07T07:00:48.395Z,9.95
2023-10-07T07:03:11.670Z,7.97
2023-10-07T07:05:36.264Z,9.50
2023-10-07T07:07:57.360Z,7.88
2023-10-07T07:10:18.272Z,6.70
2023-10-07T07:12:39.246Z,8.75
2023-10-07T07:15:06.681Z,6.68
2023-10-07T07:17:30.658Z,7.05
2023-10-07T07:20:12.902Z,7.53
2023-10-07T07:22:36.007Z,6.97
2023-10-07T07:24:56.816Z,5.40
2023-10-07T07:27:18.438Z,5.32
2023-10-07T07:29:39.422Z,6.82
2023-10-07T07:32:00.292Z,5.85
2023-10-07T07:34:26.070Z,6.10
2023-10-07T07:36:49.512Z,5.22
2023-10-07T07:39:11.268Z,6.68
2023-10-07T07:41:36.049Z,7.30
2023-10-07T07:44:00.551Z,6.38
2023-10-07T07:46:39.933Z,4.43
2023-10-07T07:49:07.488Z,4.10
2023-10-07T07:51:28.297Z,4.13
2023-10-07T07:53:49.322Z,4.22
2023-10-07T07:56:13.941Z,6.22
2023-10-07T07:58:34.535Z,5.93
2023-10-07T08:01:05.762Z,3.85
2023-10-07T08:03:26.902Z,6.80
2023-10-07T08:05:48.402Z,5.88
2023-10-07T08:08:25.655Z,6.20
2023-10-07T08:10:47.936Z,4.40
2023-10-07T08:13:08.736Z,4.53
2023-10-07T08:15:40.107Z,4.45
2023-10-07T08:18:07.838Z,4.97
2023-10-07T08:20:41.668Z,3.65
2023-10-07T08:23:08.762Z,5.28
2023-10-07T08:25:38.384Z,4.10
2023-10-07T08:28:15.510Z,5.03
2023-10-07T08:30:39.348Z,5.45
2023-10-07T08:33:02.341Z,3.45
2023-10-07T08:35:27.078Z,5.53
2023-10-07T08:37:48.740Z,5.00
2023-10-07T08:40:19.603Z,4.60
2023-10-07T08:42:47.179Z,2.95
2023-10-07T08:45:15.575Z,5.20
2023-10-07T08:47:44.843Z,3.60
2023-10-07T08:50:08.013Z,4.95
2023-10-07T08:52:30.997Z,5.28
2023-10-07T08:54:52.918Z,2.60
2023-10-07T08:57:17.867Z,4.00
2023-10-07T08:59:39.272Z,3.13
2023-10-07T09:02:14.051Z,3.65
2023-10-07T09:04:35.176Z,2.67
2023-10-07T09:06:55.590Z,2.90
2023-10-07T09:09:33.492Z,3.15
2023-10-07T09:11:55.263Z,2.70
2023-10-07T09:14:19.587Z,3.03
2023-10-07T09:16:42.133Z,2.58
2023-10-07T09:19:14.111Z,2.53
2023-10-07T09:21:35.248Z,2.55
2023-10-07T09:24:03.496Z,2.75
2023-10-07T09:26:31.485Z,3.42
2023-10-07T09:29:21.039Z,2.97
2023-10-07T09:31:43.512Z,3.90
2023-10-07T09:34:10.783Z,2.20
2023-10-07T09:36:31.927Z,2.30
2023-10-07T09:39:17.716Z,2.10
2023-10-07T09:41:38.967Z,3.25
2023-10-07T09:44:01.319Z,2.20
2023-10-07T09:46:38.355Z,2.42
2023-10-07T09:48:59.386Z,2.30
2023-10-07T09:51:35.810Z,2.40
2023-10-07T09:54:23.503Z,2.03
2023-10-07T09:57:15.562Z,2.45
2023-10-07T09:59:41.220Z,1.83
2023-10-07T10:02:26.971Z,2.10
2023-10-07T10:05:06.016Z,2.22
2023-10-07T10:07:45.185Z,2.55
2023-10-07T10:13:03.228Z,1.92
2023-10-07T10:15:37.961Z,3.10
2023-10-07T10:18:03.304Z,3.60
2023-10-07T10:20:28.987Z,1.92
2023-10-07T10:22:53.915Z,1.70
2023-10-07T10:25:18.176Z,3.25
2023-10-07T10:27:45.710Z,3.13
2023-10-07T10:30:07.321Z,2.13
2023-10-07T10:32:29.945Z,1.85
2023-10-07T10:34:51.428Z,1.90
2023-10-07T10:37:11.931Z,2.25
2023-10-07T10:39:41.387Z,1.80
2023-10-07T10:42:10.948Z,2.40
2023-10-07T10:44:41.038Z,2.08
2023-10-07T10:47:01.508Z,2.58
2023-10-07T10:49:22.439Z,3.58
2023-10-07T10:51:47.051Z,2.90
2023-10-07T10:54:07.908Z,1.77
2023-10-07T10:56:28.423Z,2.47
2023-10-07T10:58:56.450Z,3.15
2023-10-07T11:01:17.855Z,1.98
2023-10-07T11:03:39.276Z,2.72
2023-10-07T11:06:01.401Z,1.70
2023-10-07T11:08:26.013Z,2.00
2023-10-07T11:10:49.504Z,1.70
2023-10-07T11:13:10.188Z,1.67
2023-10-07T11:15:31.002Z,1.75
2023-10-07T11:17:55.832Z,1.90
2023-10-07T11:20:20.715Z,2.20
2023-10-07T11:22:43.463Z,1.98
2023-10-07T11:25:05.345Z,2.40
2023-10-07T11:27:28.051Z,1.95
2023-10-07T11:29:59.248Z,1.90
2023-10-07T11:32:30.595Z,2.30
2023-10-07T11:34:51.632Z,3.45
2023-10-07T11:37:14.471Z,2.53
2023-10-07T11:39:39.983Z,2.05
2023-10-07T11:42:02.581Z,2.13
2023-10-07T11:44:24.056Z,1.95
2023-10-07T11:46:45.703Z,1.83
2023-10-07T11:49:06.076Z,1.92
2023-10-07T11:51:28.657Z,1.65
2023-10-07T11:53:50.057Z,1.63
2023-10-07T11:56:13.066Z,1.92
2023-10-07T11:58:34.380Z,1.98
2023-10-07T12:00:56.480Z,1.77
2023-10-07T12:03:18.598Z,2.17
2023-10-07T12:05:44.819Z,3.08
2023-10-07T12:08:05.813Z,2.00
2023-10-07T12:10:29.090Z,1.77
2023-10-07T12:12:53.237Z,1.13
2023-10-07T12:15:17.181Z,1.30
2023-10-07T12:17:38.167Z,1.52
2023-10-07T12:19:59.563Z,1.65
2023-10-07T12:22:20.304Z,1.10
2023-10-07T12:24:43.199Z,1.45
2023-10-07T12:27:03.765Z,2.15
2023-10-07T12:29:27.349Z,1.63
2023-10-07T12:31:49.032Z,1.52
2023-10-07T12:34:11.202Z,1.38
2023-10-07T12:36:32.023Z,1.80
2023-10-07T12:38:52.703Z,1.60
2023-10-07T12:41:16.267Z,1.42
2023-10-07T12:43:39.166Z,1.80
2023-10-07T12:46:03.720Z,1.60
2023-10-07T12:48:24.238Z,1.63
2023-10-07T12:50:44.668Z,1.45
2023-10-07T12:53:05.965Z,1.58
2023-10-07T12:55:32.586Z,2.00
2023-10-07T12:57:53.477Z,2.72
2023-10-07T13:00:23.295Z,1.60
2023-10-07T13:02:45.382Z,1.67
2023-10-07T13:05:10.358Z,1.83
2023-10-07T13:07:30.750Z,1.38
2023-10-07T13:09:51.305Z,1.75
2023-10-07T13:12:16.935Z,1.27
2023-10-07T13:14:37.703Z,1.55
2023-10-07T13:16:59.015Z,2.88
2023-10-07T13:19:21.496Z,1.33
2023-10-07T13:21:42.922Z,1.75
2023-10-07T13:24:08.983Z,1.33
2023-10-07T13:26:32.146Z,1.65
2023-10-07T13:28:55.570Z,2.53
2023-10-07T13:31:18.335Z,1.70
2023-10-07T13:33:39.272Z,1.40
2023-10-07T13:36:02.481Z,1.73
2023-10-07T13:38:26.311Z,1.83
2023-10-07T13:40:47.038Z,1.40
2023-10-07T13:43:08.616Z,1.60
2023-10-07T13:45:32.150Z,1.55
2023-10-07T13:47:53.288Z,1.70
2023-10-07T13:50:16.818Z,1.77
2023-10-07T13:52:47.133Z,3.85
2023-10-07T13:55:23.682Z,1.58
2023-10-07T13:57:44.101Z,1.80
2023-10-07T14:00:24.798Z,1.42
2023-10-07T14:02:45.760Z,3.45
2023-10-07T14:05:07.037Z,1.65
2023-10-07T14:07:28.204Z,1.63
2023-10-07T14:09:50.496Z,1.70
2023-10-07T14:12:11.243Z,1.38
2023-10-07T14:14:32.374Z,1.58
2023-10-07T14:16:59.705Z,3.03
2023-10-07T14:19:21.671Z,2.25
2023-10-07T14:21:42.550Z,1.67
2023-10-07T14:24:04.834Z,1.88
2023-10-07T14:26:26.161Z,1.45
2023-10-07T14:28:47.200Z,1.67
2023-10-07T14:31:09.879Z,1.30
2023-10-07T14:33:31.592Z,2.13
2023-10-07T14:35:55.701Z,1.50
2023-10-07T14:38:16.548Z,1.95
2023-10-07T14:40:42.891Z,1.83
2023-10-07T14:43:05.421Z,1.85
2023-10-07T14:45:26.340Z,2.05
2023-10-07T14:47:47.479Z,1.95
2023-10-07T14:50:08.796Z,3.15
2023-10-07T14:52:29.242Z,1.40
2023-10-07T14:54:49.768Z,1.70
2023-10-07T14:57:11.454Z,2.22
2023-10-07T14:59:34.658Z,1.77
2023-10-07T15:01:55.667Z,2.22
2023-10-07T15:04:18.772Z,1.88
2023-10-07T15:06:39.742Z,1.48
2023-10-07T15:09:00.700Z,1.98
2023-10-07T15:11:22.843Z,2.05
2023-10-07T15:13:44.210Z,2.17
2023-10-07T15:16:12.583Z,3.55
2023-10-07T15:18:34.121Z,2.15
2023-10-07T15:21:06.374Z,1.80
2023-10-07T15:23:26.796Z,2.88
2023-10-07T15:25:47.344Z,1.77
2023-10-07T15:28:08.108Z,3.40
2023-10-07T15:30:28.547Z,2.55
2023-10-07T15:32:48.902Z,2.53
2023-10-07T15:35:09.569Z,4.00
2023-10-07T15:37:31.283Z,2.03
2023-10-07T15:39:52.237Z,1.73
2023-10-07T15:42:13.621Z,2.60
2023-10-07T15:44:34.096Z,2.22
2023-10-07T15:46:54.663Z,2.33
2023-10-07T15:49:15.779Z,2.30
2023-10-07T15:51:40.096Z,2.15
2023-10-07T15:54:00.965Z,2.53
2023-10-07T15:56:22.336Z,2.30
2023-10-07T15:58:44.129Z,2.42
2023-10-07T16:01:05.809Z,2.38
2023-10-07T16:03:27.311Z,2.08
2023-10-07T16:05:49.272Z,1.75
2023-10-07T16:08:11.874Z,2.72
2023-10-07T16:10:37.933Z,1.80
2023-10-07T16:12:59.150Z,2.47
2023-10-07T16:15:19.953Z,2.30
2023-10-07T16:17:41.809Z,2.97
2023-10-07T16:20:02.717Z,3.75
2023-10-07T16:22:23.558Z,6.57
2023-10-07T16:24:45.122Z,3.90
2023-10-07T16:27:05.973Z,5.10
2023-10-07T16:29:26.969Z,2.70
2023-10-07T16:31:48.771Z,3.05
2023-10-07T16:34:09.893Z,2.20
2023-10-07T16:36:31.607Z,1.75
2023-10-07T16:38:53.681Z,2.50
2023-10-07T16:41:18.024Z,1.90
2023-10-07T16:43:38.874Z,1.75
2023-10-07T16:46:04.114Z,3.03
2023-10-07T16:48:25.199Z,2.38
2023-10-07T16:50:56.467Z,3.03
2023-10-07T16:53:17.187Z,2.85
2023-10-07T16:55:39.316Z,4.35
2023-10-07T16:58:00.213Z,2.35
2023-10-07T17:00:20.867Z,1.65
2023-10-07T17:02:41.912Z,2.28
2023-10-07T17:05:03.801Z,3.08
2023-10-07T17:07:25.743Z,2.30
2023-10-07T17:09:46.370Z,2.30
2023-10-07T17:12:07.467Z,2.55
2023-10-07T17:14:28.005Z,2.10
2023-10-07T17:16:49.355Z,3.78
2023-10-07T17:19:13.718Z,2.63
2023-10-07T17:21:34.683Z,2.45
2023-10-07T17:23:55.104Z,2.90
2023-10-07T17:26:15.608Z,2.50
2023-10-07T17:28:36.910Z,4.78
2023-10-07T17:30:57.616Z,3.70
2023-10-07T17:33:18.077Z,3.00
2023-10-07T17:35:43.469Z,4.50
2023-10-07T17:38:05.621Z,2.80
2023-10-07T17:40:26.901Z,5.03
2023-10-07T17:42:48.295Z,14.88
2023-10-07T17:45:16.319Z,24.42
2023-10-07T17:47:36.920Z,21.58
2023-10-07T17:49:57.884Z,34.70
2023-10-07T17:52:18.372Z,20.80
2023-10-07T17:54:39.167Z,23.73
2023-10-07T17:56:59.816Z,11.60
2023-10-07T17:59:20.559Z,10.85
2023-10-07T18:01:41.448Z,4.22
2023-10-07T18:04:03.793Z,10.20
2023-10-07T18:06:24.520Z,6.20
2023-10-07T18:08:45.301Z,5.18
2023-10-07T18:11:06.557Z,5.70
2023-10-07T18:13:27.371Z,4.20
2023-10-07T18:15:47.828Z,3.95
2023-10-07T18:18:08.703Z,3.03
2023-10-07T18:20:29.829Z,5.20
2023-10-07T18:22:54.828Z,2.88
2023-10-07T18:25:15.378Z,4.15
2023-10-07T18:27:36.123Z,4.28
2023-10-07T18:29:56.805Z,3.40
2023-10-07T18:32:19.066Z,2.72
2023-10-07T18:34:40.093Z,2.78
2023-10-07T18:37:01.201Z,2.83
2023-10-07T18:39:22.012Z,5.45
2023-10-07T18:41:43.461Z,4.93
2023-10-07T18:44:04.792Z,3.33
2023-10-07T18:46:25.443Z,3.35
2023-10-07T18:48:46.419Z,3.45
2023-10-07T18:51:08.352Z,4.15
2023-10-07T18:53:28.799Z,4.13
2023-10-07T18:55:56.095Z,2.90
2023-10-07T18:58:17.026Z,2.80
2023-10-07T19:00:38.468Z,4.07
2023-10-07T19:02:59.753Z,3.95
2023-10-07T19:05:20.485Z,4.25
2023-10-07T19:07:42.789Z,5.13
2023-10-07T19:10:04.125Z,4.47
2023-10-07T19:12:25.002Z,4.65
2023-10-07T19:14:47.614Z,3.45
2023-10-07T19:17:09.933Z,2.95
2023-10-07T19:19:31.327Z,2.83
2023-10-07T19:21:52.171Z,4.13
2023-10-07T19:24:13.091Z,4.03
2023-10-07T19:26:34.281Z,2.75
2023-10-07T19:28:55.244Z,4.70
2023-10-07T19:31:18.568Z,3.17
2023-10-07T19:33:40.269Z,3.45
2023-10-07T19:36:04.290Z,3.00
2023-10-07T19:38:26.183Z,2.90
2023-10-07T19:40:51.106Z,3.30
2023-10-07T19:43:11.912Z,3.33
2023-10-07T19:45:33.695Z,3.30
2023-10-07T19:47:57.945Z,4.68
2023-10-07T19:50:18.982Z,3.35
2023-10-07T19:52:40.115Z,2.70
2023-10-07T19:55:00.872Z,7.35
2023-10-07T19:57:24.178Z,15.38
2023-10-07T19:59:44.975Z,25.73
2023-10-07T20:02:07.042Z,19.65
2023-10-07T20:04:27.708Z,5.95
2023-10-07T20:06:48.905Z,4.85
2023-10-07T20:09:11.288Z,4.57
2023-10-07T20:11:33.456Z,4.60
2023-10-07T20:13:54.967Z,3.80
2023-10-07T20:16:16.926Z,4.93
2023-10-07T20:18:37.616Z,3.03
2023-10-07T20:21:01.880Z,3.35
2023-10-07T20:23:22.618Z,2.97
2023-10-07T20:25:43.303Z,3.35
2023-10-07T20:28:04.847Z,5.40
2023-10-07T20:30:25.772Z,4.90
2023-10-07T20:32:48.299Z,5.32
2023-10-07T20:35:11.425Z,3.17
2023-10-07T20:37:32.430Z,2.80
2023-10-07T20:39:53.114Z,4.25
2023-10-07T20:42:13.814Z,4.03
2023-10-07T20:44:34.373Z,2.40
2023-10-07T20:46:55.040Z,2.85
2023-10-07T20:49:15.967Z,2.80
2023-10-07T20:51:36.666Z,3.33
2023-10-07T20:53:57.583Z,2.47
2023-10-07T20:56:23.290Z,2.70
2023-10-07T20:58:44.083Z,3.00
2023-10-07T21:01:07.414Z,2.17
2023-10-07T21:03:28.316Z,3.58
2023-10-07T21:05:49.139Z,4.75
2023-10-07T21:08:09.841Z,2.47
2023-10-07T21:10:30.311Z,4.20
2023-10-07T21:12:50.797Z,2.83
2023-10-07T21:15:11.653Z,3.17
2023-10-07T21:17:32.047Z,2.72
2023-10-07T21:19:53.078Z,4.25
2023-10-07T21:22:13.645Z,4.35
2023-10-07T21:24:34.458Z,2.00
2023-10-07T21:26:56.988Z,3.28
2023-10-07T21:29:17.780Z,3.30
2023-10-07T21:31:38.234Z,3.00
2023-10-07T21:33:59.092Z,3.92
2023-10-07T21:36:19.765Z,1.95
2023-10-07T21:38:40.606Z,2.42
2023-10-07T21:41:01.777Z,3.97
2023-10-07T21:43:22.316Z,2.00
2023-10-07T21:45:42.960Z,2.75
2023-10-07T21:48:04.751Z,2.60
2023-10-07T21:50:28.988Z,2.67
2023-10-07T21:52:49.932Z,3.75
2023-10-07T21:55:11.465Z,4.05
2023-10-07T21:57:32.562Z,4.35
2023-10-07T21:59:53.110Z,4.32
2023-10-07T22:02:13.833Z,1.83
2023-10-07T22:04:34.314Z,4.75
2023-10-07T22:06:55.325Z,2.25
2023-10-07T22:09:19.368Z,2.17
2023-10-07T22:11:40.753Z,2.22
2023-10-07T22:14:05.912Z,3.65
2023-10-07T22:16:27.546Z,2.33
2023-10-07T22:18:48.265Z,2.72
2023-10-07T22:21:11.900Z,3.58
2023-10-07T22:23:34.554Z,1.90
2023-10-07T22:25:57.878Z,3.40
2023-10-07T22:28:22.749Z,2.20
2023-10-07T22:30:50.807Z,3.28
2023-10-07T22:33:14.072Z,2.17
2023-10-07T22:35:41.516Z,3.47
2023-10-07T22:38:10.037Z,3.67
2023-10-07T22:40:33.466Z,3.80
2023-10-07T22:42:55.106Z,3.78
2023-10-07T22:45:19.268Z,2.33
2023-10-07T22:47:40.223Z,2.25
2023-10-07T22:50:01.663Z,2.03
2023-10-07T22:52:22.170Z,2.88
2023-10-07T22:54:50.899Z,3.13
2023-10-07T22:57:15.055Z,3.10
2023-10-07T22:59:39.300Z,4.00
2023-10-07T23:02:00.790Z,3.70
2023-10-07T23:04:22.878Z,3.28
2023-10-07T23:07:04.056Z,2.10
2023-10-07T23:09:38.183Z,2.25
2023-10-07T23:12:04.358Z,2.55
2023-10-07T23:14:26.841Z,3.53
2023-10-07T23:16:54.989Z,2.10
2023-10-07T23:19:17.707Z,2.90
2023-10-07T23:21:56.988Z,2.85
2023-10-07T23:24:36.134Z,2.42
2023-10-07T23:26:58.428Z,2.90
2023-10-07T23:29:19.205Z,2.53
2023-10-07T23:31:43.880Z,2.10
2023-10-07T23:34:24.759Z,2.38
2023-10-07T23:36:45.505Z,4.10
2023-10-07T23:39:20.072Z,2.30
2023-10-07T23:41:41.289Z,2.38
2023-10-07T23:44:02.257Z,3.38
2023-10-07T23:46:22.892Z,4.03
2023-10-07T23:48:47.782Z,3.95
2023-10-07T23:51:14.297Z,2.25
2023-10-07T23:53:37.418Z,2.65
2023-10-07T23:56:12.557Z,3.45
2023-10-07T23:58:52.113Z,3.42
